map of WAE home
WAE - Airport
Location
City:  Wadi al-Dawasir, Saudi Arabia
Name:Wadi al-Dawasir Airport
ICAO:OEWD
IATA:WAE

Details
Type:Airport (Aerodrome, Airfield)
Use:Public/Civil, International (customs port of entry)
Latitude:2030'15"N (20.504167)
Longitude:4511'56"E (45.198889)
Elevation:2062 ft (628 m)
Variation:2.70E (WMM2015 magnetic declination)
0.04 annual change
Runways:1
Longest:10007 × 148 ft (3050 × 45 m), paved

Time
Time Zone:UTC+3
Local Time:

Weather
METAR:OEWD 192100Z 11003KT CAVOK 25/14 Q1015 NOSIG

Related Locations
Nearby:
Farthest:REA: 12259 mi / 19729 km
Reao, PF

Find:

   beyond  
but within

Other Information
Maps:
NOTAMs:
Links:
Sources:

  
  • flag of Saudi Arabia
  

Sectional Chart

Flight Planning
at skyvector.com

Satellite Image

Google Maps Satellite view

 

Copyright © 2004-2018 Karl L. Swartz. All rights reserved.
The Great Circle Mapper name and logo are trademarks of the Great Circle Mapper.
All other trademarks mentioned herein belong to their respective owners.
Please see credits for attibutions and further copyright information.

  Follow gcmap on Facebook Follow gcmap on Twitter Follow gcmap on Google+ GCmap on LinkedIn

hCard Microformat

Geo Microformat